sensor_id;sensor_type;location;lat;lon;timestamp;temperature;humidity
33269;DHT22;19640;50.944;5.260;2024-03-02T00:00:07;8.10;99.90
33269;DHT22;19640;50.944;5.260;2024-03-02T00:02:42;7.80;99.90
33269;DHT22;19640;50.944;5.260;2024-03-02T00:05:11;7.80;99.90
33269;DHT22;19640;50.944;5.260;2024-03-02T00:07:37;7.80;99.90
33269;DHT22;19640;50.944;5.260;2024-03-02T00:10:09;7.80;99.90
33269;DHT22;19640;50.944;5.260;2024-03-02T00:12:38;7.70;99.90
33269;DHT22;19640;50.944;5.260;2024-03-02T00:17:56;8.00;99.90
33269;DHT22;19640;50.944;5.260;2024-03-02T00:20:23;7.90;99.90
33269;DHT22;19640;50.944;5.260;2024-03-02T00:22:55;7.90;99.90
33269;DHT22;19640;50.944;5.260;2024-03-02T00:25:22;8.00;99.90
33269;DHT22;19640;50.944;5.260;2024-03-02T00:27:48;8.20;99.90
33269;DHT22;19640;50.944;5.260;2024-03-02T00:30:55;8.20;99.90
33269;DHT22;19640;50.944;5.260;2024-03-02T00:33:22;8.30;99.90
33269;DHT22;19640;50.944;5.260;2024-03-02T00:35:49;8.40;99.90
33269;DHT22;19640;50.944;5.260;2024-03-02T00:38:15;8.40;99.90
33269;DHT22;19640;50.944;5.260;2024-03-02T00:40:45;8.50;99.90
33269;DHT22;19640;50.944;5.260;2024-03-02T00:43:45;8.40;99.90
33269;DHT22;19640;50.944;5.260;2024-03-02T00:46:15;8.50;99.90
33269;DHT22;19640;50.944;5.260;2024-03-02T00:48:59;8.60;99.90
33269;DHT22;19640;50.944;5.260;2024-03-02T00:51:28;8.60;99.90
33269;DHT22;19640;50.944;5.260;2024-03-02T00:53:57;8.50;99.90
33269;DHT22;19640;50.944;5.260;2024-03-02T00:56:24;8.60;99.90
33269;DHT22;19640;50.944;5.260;2024-03-02T00:58:50;8.80;99.90
33269;DHT22;19640;50.944;5.260;2024-03-02T01:01:16;8.60;99.90
33269;DHT22;19640;50.944;5.260;2024-03-02T01:03:43;8.50;99.90
33269;DHT22;19640;50.944;5.260;2024-03-02T01:06:09;8.60;99.90
33269;DHT22;19640;50.944;5.260;2024-03-02T01:08:35;8.50;99.90
33269;DHT22;19640;50.944;5.260;2024-03-02T01:11:01;8.60;99.90
33269;DHT22;19640;50.944;5.260;2024-03-02T01:13:27;8.50;99.90
33269;DHT22;19640;50.944;5.260;2024-03-02T01:15:53;8.40;99.90
33269;DHT22;19640;50.944;5.260;2024-03-02T01:18:19;8.40;99.90
33269;DHT22;19640;50.944;5.260;2024-03-02T01:20:44;8.50;99.90
33269;DHT22;19640;50.944;5.260;2024-03-02T01:23:11;8.60;99.90
33269;DHT22;19640;50.944;5.260;2024-03-02T01:25:36;8.50;99.90
33269;DHT22;19640;50.944;5.260;2024-03-02T01:28:02;8.60;99.90
33269;DHT22;19640;50.944;5.260;2024-03-02T01:30:28;8.50;99.90
33269;DHT22;19640;50.944;5.260;2024-03-02T01:32:54;8.40;99.90
33269;DHT22;19640;50.944;5.260;2024-03-02T01:35:19;8.30;99.90
33269;DHT22;19640;50.944;5.260;2024-03-02T01:37:45;8.30;99.90
33269;DHT22;19640;50.944;5.260;2024-03-02T01:40:11;8.40;99.90
33269;DHT22;19640;50.944;5.260;2024-03-02T01:42:37;8.20;99.90
33269;DHT22;19640;50.944;5.260;2024-03-02T01:45:10;8.20;99.90
33269;DHT22;19640;50.944;5.260;2024-03-02T01:47:35;8.10;99.90
33269;DHT22;19640;50.944;5.260;2024-03-02T01:50:02;8.20;99.90
33269;DHT22;19640;50.944;5.260;2024-03-02T01:52:27;8.30;99.90
33269;DHT22;19640;50.944;5.260;2024-03-02T01:54:53;8.30;99.90
33269;DHT22;19640;50.944;5.260;2024-03-02T01:57:19;8.30;99.90
33269;DHT22;19640;50.944;5.260;2024-03-02T01:59:46;8.30;99.90
33269;DHT22;19640;50.944;5.260;2024-03-02T02:02:14;8.10;99.90
33269;DHT22;19640;50.944;5.260;2024-03-02T02:04:40;8.10;99.90
33269;DHT22;19640;50.944;5.260;2024-03-02T02:07:05;8.20;99.90
33269;DHT22;19640;50.944;5.260;2024-03-02T02:09:32;8.10;99.90
33269;DHT22;19640;50.944;5.260;2024-03-02T02:11:58;8.00;99.90
33269;DHT22;19640;50.944;5.260;2024-03-02T02:14:24;8.10;99.90
33269;DHT22;19640;50.944;5.260;2024-03-02T02:16:49;8.10;99.90
33269;DHT22;19640;50.944;5.260;2024-03-02T02:19:15;8.10;99.90
33269;DHT22;19640;50.944;5.260;2024-03-02T02:21:44;8.30;99.90
33269;DHT22;19640;50.944;5.260;2024-03-02T02:24:09;8.30;99.90
33269;DHT22;19640;50.944;5.260;2024-03-02T02:26:35;8.30;99.90
33269;DHT22;19640;50.944;5.260;2024-03-02T02:29:01;8.30;99.90
33269;DHT22;19640;50.944;5.260;2024-03-02T02:31:40;8.30;99.90
33269;DHT22;19640;50.944;5.260;2024-03-02T02:34:06;8.50;99.90
33269;DHT22;19640;50.944;5.260;2024-03-02T02:36:32;8.40;99.90
33269;DHT22;19640;50.944;5.260;2024-03-02T02:39:02;8.20;99.90
33269;DHT22;19640;50.944;5.260;2024-03-02T02:41:32;8.10;99.90
33269;DHT22;19640;50.944;5.260;2024-03-02T02:43:58;8.10;99.90
33269;DHT22;19640;50.944;5.260;2024-03-02T02:46:23;8.30;99.90
33269;DHT22;19640;50.944;5.260;2024-03-02T02:48:49;8.00;99.90
33269;DHT22;19640;50.944;5.260;2024-03-02T02:51:17;8.00;99.90
33269;DHT22;19640;50.944;5.260;2024-03-02T02:53:42;8.10;99.90
33269;DHT22;19640;50.944;5.260;2024-03-02T02:56:08;8.10;99.90
33269;DHT22;19640;50.944;5.260;2024-03-02T02:58:34;8.10;99.90
33269;DHT22;19640;50.944;5.260;2024-03-02T03:00:59;8.00;99.90
33269;DHT22;19640;50.944;5.260;2024-03-02T03:03:25;8.00;99.90
33269;DHT22;19640;50.944;5.260;2024-03-02T03:05:51;8.00;99.90
33269;DHT22;19640;50.944;5.260;2024-03-02T03:08:16;7.90;99.90
33269;DHT22;19640;50.944;5.260;2024-03-02T03:10:42;7.80;99.90
33269;DHT22;19640;50.944;5.260;2024-03-02T03:13:08;7.90;99.90
33269;DHT22;19640;50.944;5.260;2024-03-02T03:15:37;7.90;99.90
33269;DHT22;19640;50.944;5.260;2024-03-02T03:18:04;7.90;99.90
33269;DHT22;19640;50.944;5.260;2024-03-02T03:20:30;7.90;99.90
33269;DHT22;19640;50.944;5.260;2024-03-02T03:22:56;7.80;99.90
33269;DHT22;19640;50.944;5.260;2024-03-02T03:25:22;7.60;99.90
33269;DHT22;19640;50.944;5.260;2024-03-02T03:27:48;7.60;99.90
33269;DHT22;19640;50.944;5.260;2024-03-02T03:30:14;7.80;99.90
33269;DHT22;19640;50.944;5.260;2024-03-02T03:32:40;7.90;99.90
33269;DHT22;19640;50.944;5.260;2024-03-02T03:35:06;7.80;99.90
33269;DHT22;19640;50.944;5.260;2024-03-02T03:37:32;7.70;99.90
33269;DHT22;19640;50.944;5.260;2024-03-02T03:40:02;7.80;99.90
33269;DHT22;19640;50.944;5.260;2024-03-02T03:42:28;7.90;99.90
33269;DHT22;19640;50.944;5.260;2024-03-02T03:44:54;7.90;99.90
33269;DHT22;19640;50.944;5.260;2024-03-02T03:47:20;7.90;99.90
33269;DHT22;19640;50.944;5.260;2024-03-02T03:49:46;7.90;99.90
33269;DHT22;19640;50.944;5.260;2024-03-02T03:52:11;7.70;99.90
33269;DHT22;19640;50.944;5.260;2024-03-02T03:54:37;7.80;99.90
33269;DHT22;19640;50.944;5.260;2024-03-02T03:57:04;8.00;99.90
33269;DHT22;19640;50.944;5.260;2024-03-02T03:59:30;8.00;99.90
33269;DHT22;19640;50.944;5.260;2024-03-02T04:01:56;7.90;99.90
33269;DHT22;19640;50.944;5.260;2024-03-02T04:04:21;7.90;99.90
33269;DHT22;19640;50.944;5.260;2024-03-02T04:06:47;8.00;99.90
33269;DHT22;19640;50.944;5.260;2024-03-02T04:09:13;7.70;99.90
33269;DHT22;19640;50.944;5.260;2024-03-02T04:11:39;7.70;99.90
33269;DHT22;19640;50.944;5.260;2024-03-02T04:14:04;7.50;99.90
33269;DHT22;19640;50.944;5.260;2024-03-02T04:16:31;7.40;99.90
33269;DHT22;19640;50.944;5.260;2024-03-02T04:18:57;7.50;99.90
33269;DHT22;19640;50.944;5.260;2024-03-02T04:21:23;7.40;99.90
33269;DHT22;19640;50.944;5.260;2024-03-02T04:23:48;7.40;99.90
33269;DHT22;19640;50.944;5.260;2024-03-02T04:26:14;7.60;99.90
33269;DHT22;19640;50.944;5.260;2024-03-02T04:28:40;7.60;99.90
33269;DHT22;19640;50.944;5.260;2024-03-02T04:31:06;7.60;99.90
33269;DHT22;19640;50.944;5.260;2024-03-02T04:33:31;7.60;99.90
33269;DHT22;19640;50.944;5.260;2024-03-02T04:35:57;7.80;99.90
33269;DHT22;19640;50.944;5.260;2024-03-02T04:38:23;7.80;99.90
33269;DHT22;19640;50.944;5.260;2024-03-02T04:40:49;7.80;99.90
33269;DHT22;19640;50.944;5.260;2024-03-02T04:43:14;7.80;99.90
33269;DHT22;19640;50.944;5.260;2024-03-02T04:45:42;8.00;99.90
33269;DHT22;19640;50.944;5.260;2024-03-02T04:48:08;8.00;99.90
33269;DHT22;19640;50.944;5.260;2024-03-02T04:50:34;8.00;99.90
33269;DHT22;19640;50.944;5.260;2024-03-02T04:52:59;7.80;99.90
33269;DHT22;19640;50.944;5.260;2024-03-02T04:55:25;7.80;99.90
33269;DHT22;19640;50.944;5.260;2024-03-02T04:58:11;7.80;99.90
33269;DHT22;19640;50.944;5.260;2024-03-02T05:00:36;7.80;99.90
33269;DHT22;19640;50.944;5.260;2024-03-02T05:03:02;7.60;99.90
33269;DHT22;19640;50.944;5.260;2024-03-02T05:05:28;7.60;99.90
33269;DHT22;19640;50.944;5.260;2024-03-02T05:07:54;7.50;99.90
33269;DHT22;19640;50.944;5.260;2024-03-02T05:10:19;7.50;99.90
33269;DHT22;19640;50.944;5.260;2024-03-02T05:12:45;7.50;99.90
33269;DHT22;19640;50.944;5.260;2024-03-02T05:15:12;7.40;99.90
33269;DHT22;19640;50.944;5.260;2024-03-02T05:17:39;7.40;99.90
33269;DHT22;19640;50.944;5.260;2024-03-02T05:20:06;7.30;99.90
33269;DHT22;19640;50.944;5.260;2024-03-02T05:22:33;7.30;99.90
33269;DHT22;19640;50.944;5.260;2024-03-02T05:25:00;7.30;99.90
33269;DHT22;19640;50.944;5.260;2024-03-02T05:27:26;7.20;99.90
33269;DHT22;19640;50.944;5.260;2024-03-02T05:29:52;7.00;99.90
33269;DHT22;19640;50.944;5.260;2024-03-02T05:32:18;6.90;99.90
33269;DHT22;19640;50.944;5.260;2024-03-02T05:34:43;6.90;99.90
33269;DHT22;19640;50.944;5.260;2024-03-02T05:37:09;6.90;99.90
33269;DHT22;19640;50.944;5.260;2024-03-02T05:39:34;6.70;99.90
33269;DHT22;19640;50.944;5.260;2024-03-02T05:42:00;6.80;99.90
33269;DHT22;19640;50.944;5.260;2024-03-02T05:44:26;6.90;99.90
33269;DHT22;19640;50.944;5.260;2024-03-02T05:46:51;6.80;99.90
33269;DHT22;19640;50.944;5.260;2024-03-02T05:49:18;6.80;99.90
33269;DHT22;19640;50.944;5.260;2024-03-02T05:51:43;6.60;99.90
33269;DHT22;19640;50.944;5.260;2024-03-02T05:54:09;6.50;99.90
33269;DHT22;19640;50.944;5.260;2024-03-02T05:56:35;6.60;99.90
33269;DHT22;19640;50.944;5.260;2024-03-02T05:59:01;6.60;99.90
33269;DHT22;19640;50.944;5.260;2024-03-02T06:01:42;6.60;99.90
33269;DHT22;19640;50.944;5.260;2024-03-02T06:04:09;6.40;99.90
33269;DHT22;19640;50.944;5.260;2024-03-02T06:06:36;6.60;99.90
33269;DHT22;19640;50.944;5.260;2024-03-02T06:09:03;6.60;99.90
33269;DHT22;19640;50.944;5.260;2024-03-02T06:11:38;6.70;99.90
33269;DHT22;19640;50.944;5.260;2024-03-02T06:14:08;6.90;99.90
33269;DHT22;19640;50.944;5.260;2024-03-02T06:16:34;6.90;99.90
33269;DHT22;19640;50.944;5.260;2024-03-02T06:19:00;6.90;99.90
33269;DHT22;19640;50.944;5.260;2024-03-02T06:21:26;6.90;99.90
33269;DHT22;19640;50.944;5.260;2024-03-02T06:23:52;6.90;99.90
33269;DHT22;19640;50.944;5.260;2024-03-02T06:26:18;6.80;99.90
33269;DHT22;19640;50.944;5.260;2024-03-02T06:28:45;6.90;99.90
33269;DHT22;19640;50.944;5.260;2024-03-02T06:31:10;6.90;99.90
33269;DHT22;19640;50.944;5.260;2024-03-02T06:33:36;7.00;99.90
33269;DHT22;19640;50.944;5.260;2024-03-02T06:36:02;7.00;99.90
33269;DHT22;19640;50.944;5.260;2024-03-02T06:38:28;6.90;99.90
33269;DHT22;19640;50.944;5.260;2024-03-02T06:40:54;7.00;99.90
33269;DHT22;19640;50.944;5.260;2024-03-02T06:43:21;7.10;99.90
33269;DHT22;19640;50.944;5.260;2024-03-02T06:45:50;6.90;99.90
33269;DHT22;19640;50.944;5.260;2024-03-02T06:48:17;6.90;99.90
33269;DHT22;19640;50.944;5.260;2024-03-02T06:50:46;6.80;99.90
33269;DHT22;19640;50.944;5.260;2024-03-02T06:53:13;6.70;99.90
33269;DHT22;19640;50.944;5.260;2024-03-02T06:55:39;6.80;99.90
33269;DHT22;19640;50.944;5.260;2024-03-02T06:58:04;6.70;99.90
33269;DHT22;19640;50.944;5.260;2024-03-02T07:00:30;6.70;99.90
33269;DHT22;19640;50.944;5.260;2024-03-02T07:02:56;6.40;99.90
33269;DHT22;19640;50.944;5.260;2024-03-02T07:05:21;6.50;99.90
33269;DHT22;19640;50.944;5.260;2024-03-02T07:07:47;6.60;99.90
33269;DHT22;19640;50.944;5.260;2024-03-02T07:10:12;6.80;99.90
33269;DHT22;19640;50.944;5.260;2024-03-02T07:12:38;6.80;99.90
33269;DHT22;19640;50.944;5.260;2024-03-02T07:15:04;6.90;99.90
33269;DHT22;19640;50.944;5.260;2024-03-02T07:17:33;6.90;99.90
33269;DHT22;19640;50.944;5.260;2024-03-02T07:19:59;7.00;99.90
33269;DHT22;19640;50.944;5.260;2024-03-02T07:22:25;7.10;99.90
33269;DHT22;19640;50.944;5.260;2024-03-02T07:24:51;7.10;99.90
33269;DHT22;19640;50.944;5.260;2024-03-02T07:27:17;7.00;99.90
33269;DHT22;19640;50.944;5.260;2024-03-02T07:29:43;7.00;99.90
33269;DHT22;19640;50.944;5.260;2024-03-02T07:32:10;6.90;99.90
33269;DHT22;19640;50.944;5.260;2024-03-02T07:34:36;6.90;99.90
33269;DHT22;19640;50.944;5.260;2024-03-02T07:37:03;7.00;99.90
33269;DHT22;19640;50.944;5.260;2024-03-02T07:39:29;6.80;99.90
33269;DHT22;19640;50.944;5.260;2024-03-02T07:41:55;6.80;99.90
33269;DHT22;19640;50.944;5.260;2024-03-02T07:44:21;6.80;99.90
33269;DHT22;19640;50.944;5.260;2024-03-02T07:46:47;6.80;99.90
33269;DHT22;19640;50.944;5.260;2024-03-02T07:49:15;7.00;99.90
33269;DHT22;19640;50.944;5.260;2024-03-02T07:51:41;7.50;99.90
33269;DHT22;19640;50.944;5.260;2024-03-02T07:54:07;7.80;99.90
33269;DHT22;19640;50.944;5.260;2024-03-02T07:56:34;8.10;99.90
33269;DHT22;19640;50.944;5.260;2024-03-02T07:59:00;8.20;99.90
33269;DHT22;19640;50.944;5.260;2024-03-02T08:01:28;8.40;99.90
33269;DHT22;19640;50.944;5.260;2024-03-02T08:03:59;8.30;99.90
33269;DHT22;19640;50.944;5.260;2024-03-02T08:06:28;8.30;99.90
33269;DHT22;19640;50.944;5.260;2024-03-02T08:08:57;8.30;99.90
33269;DHT22;19640;50.944;5.260;2024-03-02T08:11:23;8.20;99.90
33269;DHT22;19640;50.944;5.260;2024-03-02T08:13:49;8.40;99.90
33269;DHT22;19640;50.944;5.260;2024-03-02T08:16:16;8.60;99.90
33269;DHT22;19640;50.944;5.260;2024-03-02T08:18:45;8.50;99.90
33269;DHT22;19640;50.944;5.260;2024-03-02T08:21:12;8.80;99.90
33269;DHT22;19640;50.944;5.260;2024-03-02T08:23:38;8.80;99.90
33269;DHT22;19640;50.944;5.260;2024-03-02T08:26:03;8.80;99.90
33269;DHT22;19640;50.944;5.260;2024-03-02T08:28:29;8.70;99.90
33269;DHT22;19640;50.944;5.260;2024-03-02T08:30:55;8.80;99.90
33269;DHT22;19640;50.944;5.260;2024-03-02T08:33:22;8.90;99.90
33269;DHT22;19640;50.944;5.260;2024-03-02T08:35:47;9.00;99.90
33269;DHT22;19640;50.944;5.260;2024-03-02T08:38:13;9.00;99.90
33269;DHT22;19640;50.944;5.260;2024-03-02T08:40:39;9.00;99.90
33269;DHT22;19640;50.944;5.260;2024-03-02T08:43:05;9.00;99.90
33269;DHT22;19640;50.944;5.260;2024-03-02T08:45:30;8.80;99.90
33269;DHT22;19640;50.944;5.260;2024-03-02T08:47:56;9.00;99.90
33269;DHT22;19640;50.944;5.260;2024-03-02T08:50:21;9.10;99.90
33269;DHT22;19640;50.944;5.260;2024-03-02T08:52:47;9.30;99.90
33269;DHT22;19640;50.944;5.260;2024-03-02T08:55:13;9.50;99.90
33269;DHT22;19640;50.944;5.260;2024-03-02T08:57:39;9.40;99.90
33269;DHT22;19640;50.944;5.260;2024-03-02T09:00:05;9.30;99.90
33269;DHT22;19640;50.944;5.260;2024-03-02T09:02:33;9.50;99.90
33269;DHT22;19640;50.944;5.260;2024-03-02T09:04:59;9.50;99.90
33269;DHT22;19640;50.944;5.260;2024-03-02T09:07:25;9.50;99.90
33269;DHT22;19640;50.944;5.260;2024-03-02T09:09:51;9.60;99.90
33269;DHT22;19640;50.944;5.260;2024-03-02T09:12:18;9.30;99.90
33269;DHT22;19640;50.944;5.260;2024-03-02T09:14:44;9.30;99.90
33269;DHT22;19640;50.944;5.260;2024-03-02T09:17:10;9.50;99.90
33269;DHT22;19640;50.944;5.260;2024-03-02T09:19:37;9.60;99.90
33269;DHT22;19640;50.944;5.260;2024-03-02T09:22:03;9.60;99.90
33269;DHT22;19640;50.944;5.260;2024-03-02T09:24:33;9.90;99.90
33269;DHT22;19640;50.944;5.260;2024-03-02T09:26:59;9.90;99.90
33269;DHT22;19640;50.944;5.260;2024-03-02T09:29:25;10.10;99.90
33269;DHT22;19640;50.944;5.260;2024-03-02T09:31:51;10.00;99.90
33269;DHT22;19640;50.944;5.260;2024-03-02T09:34:17;10.20;99.90
33269;DHT22;19640;50.944;5.260;2024-03-02T09:36:43;10.30;99.90
33269;DHT22;19640;50.944;5.260;2024-03-02T09:39:09;10.40;99.90
33269;DHT22;19640;50.944;5.260;2024-03-02T09:41:36;10.40;99.90
33269;DHT22;19640;50.944;5.260;2024-03-02T09:44:02;10.50;99.90
33269;DHT22;19640;50.944;5.260;2024-03-02T09:46:28;10.20;99.90
33269;DHT22;19640;50.944;5.260;2024-03-02T09:48:54;10.00;99.90
33269;DHT22;19640;50.944;5.260;2024-03-02T09:51:20;10.00;99.90
33269;DHT22;19640;50.944;5.260;2024-03-02T09:53:47;9.90;99.90
33269;DHT22;19640;50.944;5.260;2024-03-02T09:56:13;10.00;99.90
33269;DHT22;19640;50.944;5.260;2024-03-02T09:58:39;10.30;99.90
33269;DHT22;19640;50.944;5.260;2024-03-02T10:01:07;10.10;99.90
33269;DHT22;19640;50.944;5.260;2024-03-02T10:03:36;10.10;99.90
33269;DHT22;19640;50.944;5.260;2024-03-02T10:06:24;10.20;99.90
33269;DHT22;19640;50.944;5.260;2024-03-02T10:08:51;10.30;99.90
33269;DHT22;19640;50.944;5.260;2024-03-02T10:11:30;10.60;99.90
33269;DHT22;19640;50.944;5.260;2024-03-02T10:14:13;10.70;99.90
33269;DHT22;19640;50.944;5.260;2024-03-02T10:16:40;11.00;99.90
33269;DHT22;19640;50.944;5.260;2024-03-02T10:19:25;10.70;99.90
33269;DHT22;19640;50.944;5.260;2024-03-02T10:21:53;10.50;99.90
33269;DHT22;19640;50.944;5.260;2024-03-02T10:24:20;10.40;99.90
33269;DHT22;19640;50.944;5.260;2024-03-02T10:26:47;10.30;99.90
33269;DHT22;19640;50.944;5.260;2024-03-02T10:29:13;10.40;99.90
33269;DHT22;19640;50.944;5.260;2024-03-02T10:31:39;10.60;99.90
33269;DHT22;19640;50.944;5.260;2024-03-02T10:34:06;10.90;99.90
33269;DHT22;19640;50.944;5.260;2024-03-02T10:36:34;10.80;99.90
33269;DHT22;19640;50.944;5.260;2024-03-02T10:39:04;11.00;99.90
33269;DHT22;19640;50.944;5.260;2024-03-02T10:41:32;11.00;99.90
33269;DHT22;19640;50.944;5.260;2024-03-02T10:43:59;10.80;99.90
33269;DHT22;19640;50.944;5.260;2024-03-02T10:46:30;10.80;99.90
33269;DHT22;19640;50.944;5.260;2024-03-02T10:48:57;11.00;99.90
33269;DHT22;19640;50.944;5.260;2024-03-02T10:51:30;10.90;99.90
33269;DHT22;19640;50.944;5.260;2024-03-02T10:53:59;11.10;99.90
33269;DHT22;19640;50.944;5.260;2024-03-02T10:56:41;11.10;99.90
33269;DHT22;19640;50.944;5.260;2024-03-02T11:01:59;11.50;99.90
33269;DHT22;19640;50.944;5.260;2024-03-02T11:04:29;11.70;99.90
33269;DHT22;19640;50.944;5.260;2024-03-02T11:07:06;11.70;99.90
33269;DHT22;19640;50.944;5.260;2024-03-02T11:09:38;11.70;99.90
33269;DHT22;19640;50.944;5.260;2024-03-02T11:12:29;11.60;99.90
33269;DHT22;19640;50.944;5.260;2024-03-02T11:14:56;11.70;99.90
33269;DHT22;19640;50.944;5.260;2024-03-02T11:17:21;11.80;99.90
33269;DHT22;19640;50.944;5.260;2024-03-02T11:19:48;11.90;99.90
33269;DHT22;19640;50.944;5.260;2024-03-02T11:22:15;12.00;99.90
33269;DHT22;19640;50.944;5.260;2024-03-02T11:24:51;12.10;99.90
33269;DHT22;19640;50.944;5.260;2024-03-02T11:32:57;12.00;99.90
33269;DHT22;19640;50.944;5.260;2024-03-02T11:35:25;11.80;99.90
33269;DHT22;19640;50.944;5.260;2024-03-02T11:37:51;11.90;99.90
33269;DHT22;19640;50.944;5.260;2024-03-02T11:40:22;12.00;99.90
33269;DHT22;19640;50.944;5.260;2024-03-02T11:42:47;12.10;99.90
33269;DHT22;19640;50.944;5.260;2024-03-02T11:45:17;12.20;99.90
33269;DHT22;19640;50.944;5.260;2024-03-02T11:47:50;12.30;99.90
33269;DHT22;19640;50.944;5.260;2024-03-02T11:50:15;12.20;99.90
33269;DHT22;19640;50.944;5.260;2024-03-02T11:52:42;12.00;99.90
33269;DHT22;19640;50.944;5.260;2024-03-02T11:55:09;12.10;99.90
33269;DHT22;19640;50.944;5.260;2024-03-02T11:57:37;12.30;99.90
33269;DHT22;19640;50.944;5.260;2024-03-02T12:00:03;12.40;99.90
33269;DHT22;19640;50.944;5.260;2024-03-02T12:02:29;12.30;99.90
33269;DHT22;19640;50.944;5.260;2024-03-02T12:04:56;12.30;99.90
33269;DHT22;19640;50.944;5.260;2024-03-02T12:07:23;12.30;99.90
33269;DHT22;19640;50.944;5.260;2024-03-02T12:09:59;12.40;99.90
33269;DHT22;19640;50.944;5.260;2024-03-02T12:12:26;12.40;99.90
33269;DHT22;19640;50.944;5.260;2024-03-02T12:14:53;12.50;99.90
33269;DHT22;19640;50.944;5.260;2024-03-02T12:17:21;12.70;99.90
33269;DHT22;19640;50.944;5.260;2024-03-02T12:19:47;12.50;99.90
33269;DHT22;19640;50.944;5.260;2024-03-02T12:22:13;12.50;99.90
33269;DHT22;19640;50.944;5.260;2024-03-02T12:24:39;12.60;99.90
33269;DHT22;19640;50.944;5.260;2024-03-02T12:27:06;12.70;99.90
33269;DHT22;19640;50.944;5.260;2024-03-02T12:29:32;12.70;99.90
33269;DHT22;19640;50.944;5.260;2024-03-02T12:31:59;12.70;99.90
33269;DHT22;19640;50.944;5.260;2024-03-02T12:34:27;13.00;99.90
33269;DHT22;19640;50.944;5.260;2024-03-02T12:36:52;13.10;99.90
33269;DHT22;19640;50.944;5.260;2024-03-02T12:39:19;12.90;99.90
33269;DHT22;19640;50.944;5.260;2024-03-02T12:41:46;13.10;99.90
33269;DHT22;19640;50.944;5.260;2024-03-02T12:44:12;13.00;99.90
33269;DHT22;19640;50.944;5.260;2024-03-02T12:46:38;13.00;99.90
33269;DHT22;19640;50.944;5.260;2024-03-02T12:49:09;13.00;99.90
33269;DHT22;19640;50.944;5.260;2024-03-02T12:51:39;13.10;99.90
33269;DHT22;19640;50.944;5.260;2024-03-02T12:54:09;13.20;99.90
33269;DHT22;19640;50.944;5.260;2024-03-02T12:56:36;13.30;99.90
33269;DHT22;19640;50.944;5.260;2024-03-02T12:59:03;13.60;99.90
33269;DHT22;19640;50.944;5.260;2024-03-02T13:01:29;13.70;99.90
33269;DHT22;19640;50.944;5.260;2024-03-02T13:03:55;13.70;99.90
33269;DHT22;19640;50.944;5.260;2024-03-02T13:06:22;13.70;99.90
33269;DHT22;19640;50.944;5.260;2024-03-02T13:08:48;13.80;99.90
33269;DHT22;19640;50.944;5.260;2024-03-02T13:11:16;13.80;99.90
33269;DHT22;19640;50.944;5.260;2024-03-02T13:13:42;13.70;99.90
33269;DHT22;19640;50.944;5.260;2024-03-02T13:16:11;13.50;99.90
33269;DHT22;19640;50.944;5.260;2024-03-02T13:18:41;13.80;99.90
33269;DHT22;19640;50.944;5.260;2024-03-02T13:21:08;13.90;99.90
33269;DHT22;19640;50.944;5.260;2024-03-02T13:23:33;13.90;99.90
33269;DHT22;19640;50.944;5.260;2024-03-02T13:25:59;13.90;99.90
33269;DHT22;19640;50.944;5.260;2024-03-02T13:28:26;14.00;99.90
33269;DHT22;19640;50.944;5.260;2024-03-02T13:30:51;14.20;99.90
33269;DHT22;19640;50.944;5.260;2024-03-02T13:33:17;14.30;99.90
33269;DHT22;19640;50.944;5.260;2024-03-02T13:35:49;14.50;99.90
33269;DHT22;19640;50.944;5.260;2024-03-02T13:38:19;14.30;99.90
33269;DHT22;19640;50.944;5.260;2024-03-02T13:40:49;14.20;99.90
33269;DHT22;19640;50.944;5.260;2024-03-02T13:43:18;14.40;99.90
33269;DHT22;19640;50.944;5.260;2024-03-02T13:45:44;14.60;99.90
33269;DHT22;19640;50.944;5.260;2024-03-02T13:48:10;14.60;99.90
33269;DHT22;19640;50.944;5.260;2024-03-02T13:50:35;14.70;99.90
33269;DHT22;19640;50.944;5.260;2024-03-02T13:53:01;14.70;99.90
33269;DHT22;19640;50.944;5.260;2024-03-02T13:55:28;14.80;99.90
33269;DHT22;19640;50.944;5.260;2024-03-02T13:57:54;14.40;99.90
33269;DHT22;19640;50.944;5.260;2024-03-02T14:00:20;14.20;99.90
33269;DHT22;19640;50.944;5.260;2024-03-02T14:02:46;14.30;99.90
33269;DHT22;19640;50.944;5.260;2024-03-02T14:05:12;14.40;99.90
33269;DHT22;19640;50.944;5.260;2024-03-02T14:07:39;14.20;99.90
33269;DHT22;19640;50.944;5.260;2024-03-02T14:10:06;14.30;99.90
33269;DHT22;19640;50.944;5.260;2024-03-02T14:12:31;14.20;99.90
33269;DHT22;19640;50.944;5.260;2024-03-02T14:14:57;14.20;99.90
33269;DHT22;19640;50.944;5.260;2024-03-02T14:17:28;14.40;99.90
33269;DHT22;19640;50.944;5.260;2024-03-02T14:19:53;14.30;99.90
33269;DHT22;19640;50.944;5.260;2024-03-02T14:22:20;14.10;99.90
33269;DHT22;19640;50.944;5.260;2024-03-02T14:24:46;13.90;99.90
33269;DHT22;19640;50.944;5.260;2024-03-02T14:27:12;14.10;99.90
33269;DHT22;19640;50.944;5.260;2024-03-02T14:29:39;13.90;99.90
33269;DHT22;19640;50.944;5.260;2024-03-02T14:32:06;14.00;99.90
33269;DHT22;19640;50.944;5.260;2024-03-02T14:34:31;14.10;99.90
33269;DHT22;19640;50.944;5.260;2024-03-02T14:36:58;13.90;99.90
33269;DHT22;19640;50.944;5.260;2024-03-02T14:39:25;14.00;99.90
33269;DHT22;19640;50.944;5.260;2024-03-02T14:41:51;13.80;99.90
33269;DHT22;19640;50.944;5.260;2024-03-02T14:44:16;13.60;99.90
33269;DHT22;19640;50.944;5.260;2024-03-02T14:46:43;13.50;99.90
33269;DHT22;19640;50.944;5.260;2024-03-02T14:49:12;13.40;99.90
33269;DHT22;19640;50.944;5.260;2024-03-02T14:51:38;13.60;99.90
33269;DHT22;19640;50.944;5.260;2024-03-02T14:54:03;13.70;99.90
33269;DHT22;19640;50.944;5.260;2024-03-02T14:56:29;13.70;99.90
33269;DHT22;19640;50.944;5.260;2024-03-02T14:58:55;13.50;99.90
33269;DHT22;19640;50.944;5.260;2024-03-02T15:01:21;13.40;99.90
33269;DHT22;19640;50.944;5.260;2024-03-02T15:03:53;13.50;99.90
33269;DHT22;19640;50.944;5.260;2024-03-02T15:06:19;13.50;99.90
33269;DHT22;19640;50.944;5.260;2024-03-02T15:08:44;13.60;99.90
33269;DHT22;19640;50.944;5.260;2024-03-02T15:11:13;13.70;99.90
33269;DHT22;19640;50.944;5.260;2024-03-02T15:13:39;13.30;99.90
33269;DHT22;19640;50.944;5.260;2024-03-02T15:16:05;13.30;99.90
33269;DHT22;19640;50.944;5.260;2024-03-02T15:18:31;13.20;99.90
33269;DHT22;19640;50.944;5.260;2024-03-02T15:20:57;13.00;99.90
33269;DHT22;19640;50.944;5.260;2024-03-02T15:23:22;13.10;99.90
33269;DHT22;19640;50.944;5.260;2024-03-02T15:25:49;13.10;99.90
33269;DHT22;19640;50.944;5.260;2024-03-02T15:28:14;13.10;99.90
33269;DHT22;19640;50.944;5.260;2024-03-02T15:30:40;13.20;99.90
33269;DHT22;19640;50.944;5.260;2024-03-02T15:33:06;13.10;99.90
33269;DHT22;19640;50.944;5.260;2024-03-02T15:35:32;13.10;99.90
33269;DHT22;19640;50.944;5.260;2024-03-02T15:37:58;13.00;99.90
33269;DHT22;19640;50.944;5.260;2024-03-02T15:40:24;13.00;99.90
33269;DHT22;19640;50.944;5.260;2024-03-02T15:42:50;13.20;99.90
33269;DHT22;19640;50.944;5.260;2024-03-02T15:45:15;13.30;99.90
33269;DHT22;19640;50.944;5.260;2024-03-02T15:47:42;13.10;99.90
33269;DHT22;19640;50.944;5.260;2024-03-02T15:50:08;13.20;99.90